Time;durP1;ratioP1;P1;durP2;ratioP2;P2;SDS_P1;SDS_P2;PMS_P1;PMS_P2;Temp;Humidity;BMP_temperature;BMP_pressure;BME280_temperature;BME280_humidity;BME280_pressure;Samples;Min_cycle;Max_cycle;Signal;HPM_P1;HPM_P2
2022/05/07 00:00:41;;;;;;;43.73;28.57;;;;;;;;;;5039540;28;20048;-59
2022/05/07 00:03:07;;;;;;;44.30;29.47;;;;;;;;;;5037246;28;20048;-59
2022/05/07 00:05:33;;;;;;;36.83;25.77;;;;;;;;;;5038642;28;20072;-59
2022/05/07 00:07:59;;;;;;;45.97;29.80;;;;;;;;;;5037505;28;20046;-59
2022/05/07 00:10:25;;;;;;;40.03;27.33;;;;;;;;;;5037669;28;20053;-59
2022/05/07 00:12:51;;;;;;;42.97;28.57;;;;;;;;;;5042165;28;20548;-59
2022/05/07 00:15:17;;;;;;;41.77;29.10;;;;;;;;;;5038180;28;20049;-59
2022/05/07 00:18:03;;;;;;;37.40;27.30;;;;;;;;;;5037150;28;20111;-59
2022/05/07 00:20:30;;;;;;;33.17;25.93;;;;;;;;;;5037674;28;20049;-59
2022/05/07 00:22:56;;;;;;;43.80;29.67;;;;;;;;;;5038491;28;20045;-59
2022/05/07 00:25:23;;;;;;;46.90;29.03;;;;;;;;;;5036504;28;20049;-59
2022/05/07 00:27:49;;;;;;;38.37;26.37;;;;;;;;;;5036868;28;20072;-59
2022/05/07 00:30:15;;;;;;;36.30;26.23;;;;;;;;;;5039157;28;20096;-59
2022/05/07 00:32:41;;;;;;;35.77;26.40;;;;;;;;;;5038094;28;20475;-59
2022/05/07 00:35:09;;;;;;;31.67;23.43;;;;;;;;;;5039034;28;20450;-59
2022/05/07 00:37:35;;;;;;;32.93;24.67;;;;;;;;;;5040031;28;20045;-59
2022/05/07 00:40:01;;;;;;;36.50;25.20;;;;;;;;;;5035715;28;20075;-59
2022/05/07 00:42:27;;;;;;;34.77;23.50;;;;;;;;;;5036559;28;20041;-59
2022/05/07 00:44:53;;;;;;;29.43;22.40;;;;;;;;;;5039404;28;20079;-59
2022/05/07 00:47:19;;;;;;;29.47;22.80;;;;;;;;;;5039349;28;20054;-59
2022/05/07 00:49:46;;;;;;;31.33;23.47;;;;;;;;;;5039107;28;20041;-59
2022/05/07 00:52:12;;;;;;;36.47;25.53;;;;;;;;;;5036505;28;20494;-59
2022/05/07 00:54:38;;;;;;;34.00;24.97;;;;;;;;;;5037845;28;20049;-59
2022/05/07 00:57:04;;;;;;;31.27;24.23;;;;;;;;;;5039115;28;20045;-59
2022/05/07 00:59:30;;;;;;;33.37;24.10;;;;;;;;;;5036327;28;20443;-59
2022/05/07 01:01:56;;;;;;;37.40;25.40;;;;;;;;;;5037404;28;20555;-59
2022/05/07 01:04:22;;;;;;;32.80;26.23;;;;;;;;;;5039319;28;20817;-59
2022/05/07 01:06:49;;;;;;;37.00;27.63;;;;;;;;;;5036253;28;20092;-59
2022/05/07 01:09:15;;;;;;;39.73;26.50;;;;;;;;;;5039102;28;20091;-59
2022/05/07 01:11:41;;;;;;;29.77;21.07;;;;;;;;;;5036239;28;20408;-59
2022/05/07 01:14:07;;;;;;;36.93;24.90;;;;;;;;;;5036227;28;20134;-59
2022/05/07 01:16:33;;;;;;;33.97;25.43;;;;;;;;;;5037608;28;20043;-59
2022/05/07 01:18:59;;;;;;;31.90;24.27;;;;;;;;;;5037856;28;20049;-59
2022/05/07 01:21:27;;;;;;;33.30;23.93;;;;;;;;;;5036454;28;20060;-59
2022/05/07 01:23:53;;;;;;;29.57;22.93;;;;;;;;;;5035689;28;20057;-59
2022/05/07 01:26:23;;;;;;;30.30;22.30;;;;;;;;;;5035943;28;20511;-59
2022/05/07 01:28:49;;;;;;;31.40;23.57;;;;;;;;;;5036366;28;20049;-59
2022/05/07 01:31:16;;;;;;;37.27;25.43;;;;;;;;;;5036789;28;20054;-59
2022/05/07 01:33:42;;;;;;;36.07;25.17;;;;;;;;;;5038236;28;20048;-59
2022/05/07 01:36:11;;;;;;;34.30;23.87;;;;;;;;;;5027080;28;20412;-59
2022/05/07 01:38:37;;;;;;;30.83;23.60;;;;;;;;;;5042305;28;20060;-59
2022/05/07 01:41:04;;;;;;;35.70;24.50;;;;;;;;;;5048442;28;20095;-59
2022/05/07 01:43:33;;;;;;;34.47;26.03;;;;;;;;;;5047555;28;20111;-59
2022/05/07 01:46:00;;;;;;;38.20;28.10;;;;;;;;;;5040450;28;20041;-59
2022/05/07 01:48:26;;;;;;;45.33;30.73;;;;;;;;;;5027827;28;20041;-59
2022/05/07 01:50:52;;;;;;;42.77;29.50;;;;;;;;;;5028247;28;20059;-59
2022/05/07 01:53:18;;;;;;;38.37;30.93;;;;;;;;;;5031938;28;20053;-59
2022/05/07 01:55:44;;;;;;;44.37;32.70;;;;;;;;;;5030996;28;20045;-59
2022/05/07 01:58:14;;;;;;;36.93;28.37;;;;;;;;;;5031873;28;20422;-59
2022/05/07 02:00:40;;;;;;;37.63;28.00;;;;;;;;;;5032137;28;20045;-59
2022/05/07 02:03:07;;;;;;;34.57;27.83;;;;;;;;;;5031701;28;20041;-59
2022/05/07 02:05:33;;;;;;;35.80;28.03;;;;;;;;;;5031569;28;20045;-59
2022/05/07 02:07:59;;;;;;;30.53;25.90;;;;;;;;;;5031585;28;20041;-59
2022/05/07 02:10:26;;;;;;;32.70;28.03;;;;;;;;;;5031829;28;20518;-59
2022/05/07 02:12:52;;;;;;;31.67;26.70;;;;;;;;;;5032299;28;20129;-60
2022/05/07 02:15:18;;;;;;;36.07;26.40;;;;;;;;;;5032722;28;20261;-59
2022/05/07 02:17:44;;;;;;;38.80;27.13;;;;;;;;;;5032311;28;20041;-59
2022/05/07 02:20:11;;;;;;;33.80;26.50;;;;;;;;;;5031770;28;20162;-60
2022/05/07 02:22:37;;;;;;;36.03;29.07;;;;;;;;;;5046975;28;20756;-59
2022/05/07 02:25:03;;;;;;;33.27;27.80;;;;;;;;;;5037581;28;20110;-59
2022/05/07 02:27:30;;;;;;;33.13;27.70;;;;;;;;;;5032062;28;20560;-59
2022/05/07 02:29:56;;;;;;;34.87;28.03;;;;;;;;;;5032106;28;20130;-60
2022/05/07 02:32:22;;;;;;;33.77;27.60;;;;;;;;;;5032199;28;20128;-59
2022/05/07 02:34:48;;;;;;;34.67;27.67;;;;;;;;;;5032184;28;20080;-59
2022/05/07 02:37:14;;;;;;;36.77;29.57;;;;;;;;;;5032170;28;20073;-59
2022/05/07 02:39:40;;;;;;;34.57;28.17;;;;;;;;;;5031962;28;20049;-59
2022/05/07 02:44:51;;;;;;;33.13;27.30;;;;;;;;;;5032117;28;20049;-59
2022/05/07 02:47:17;;;;;;;37.00;27.97;;;;;;;;;;5030893;28;20049;-59
2022/05/07 02:49:43;;;;;;;33.73;27.17;;;;;;;;;;5031899;28;20080;-59
2022/05/07 02:52:09;;;;;;;37.20;28.47;;;;;;;;;;5031566;28;20130;-59
2022/05/07 02:54:35;;;;;;;35.60;27.53;;;;;;;;;;5032368;28;20860;-59
2022/05/07 02:57:01;;;;;;;38.00;28.27;;;;;;;;;;5031744;28;20041;-59
2022/05/07 02:59:27;;;;;;;40.50;28.83;;;;;;;;;;5031567;28;20068;-59
2022/05/07 03:01:53;;;;;;;39.00;29.53;;;;;;;;;;5031230;28;20049;-59
2022/05/07 03:04:20;;;;;;;36.30;29.70;;;;;;;;;;5030409;28;20535;-60
2022/05/07 03:06:46;;;;;;;41.53;32.50;;;;;;;;;;5038621;28;20056;-59
2022/05/07 03:09:12;;;;;;;37.77;29.23;;;;;;;;;;5041515;28;20091;-59
2022/05/07 03:11:38;;;;;;;35.57;27.33;;;;;;;;;;5038649;28;20046;-59
2022/05/07 03:14:05;;;;;;;32.60;26.57;;;;;;;;;;5041687;28;20045;-60
2022/05/07 03:16:31;;;;;;;35.47;27.03;;;;;;;;;;5038453;28;20084;-60
2022/05/07 03:18:57;;;;;;;36.17;26.77;;;;;;;;;;5039235;28;20080;-60
2022/05/07 03:21:23;;;;;;;38.33;26.37;;;;;;;;;;5039739;28;20036;-60
2022/05/07 03:23:49;;;;;;;34.50;27.27;;;;;;;;;;5039116;28;20030;-59
2022/05/07 03:26:17;;;;;;;32.40;26.67;;;;;;;;;;5038881;28;20419;-60
2022/05/07 03:28:43;;;;;;;34.53;27.20;;;;;;;;;;5040216;28;20072;-60
2022/05/07 03:31:09;;;;;;;32.97;26.27;;;;;;;;;;5040980;28;20423;-60
2022/05/07 03:33:35;;;;;;;32.63;27.33;;;;;;;;;;5038885;28;20087;-59
2022/05/07 03:36:01;;;;;;;34.47;25.93;;;;;;;;;;5039644;28;20040;-60
2022/05/07 03:38:27;;;;;;;44.73;27.03;;;;;;;;;;5040485;28;20064;-60
2022/05/07 03:40:55;;;;;;;37.23;25.73;;;;;;;;;;5038396;28;20120;-60
2022/05/07 03:43:21;;;;;;;35.10;26.40;;;;;;;;;;5039778;28;20152;-60
2022/05/07 03:45:47;;;;;;;36.93;27.27;;;;;;;;;;5039573;28;20128;-60
2022/05/07 03:48:13;;;;;;;35.67;24.00;;;;;;;;;;5039401;28;20414;-60
2022/05/07 03:50:39;;;;;;;34.53;25.87;;;;;;;;;;5038313;28;20041;-60
2022/05/07 03:55:50;;;;;;;32.17;25.10;;;;;;;;;;5041071;28;20041;-59
2022/05/07 03:58:17;;;;;;;37.20;26.93;;;;;;;;;;5034428;28;20048;-60
2022/05/07 04:00:44;;;;;;;35.43;26.87;;;;;;;;;;5039335;28;20075;-59
2022/05/07 04:03:10;;;;;;;33.33;26.07;;;;;;;;;;5041299;28;20044;-59
2022/05/07 04:05:36;;;;;;;34.70;27.20;;;;;;;;;;5038340;28;20037;-60
2022/05/07 04:08:02;;;;;;;35.07;26.13;;;;;;;;;;5040594;28;20034;-60
2022/05/07 04:10:28;;;;;;;33.77;25.30;;;;;;;;;;5040812;28;20053;-59
2022/05/07 04:12:54;;;;;;;31.53;25.60;;;;;;;;;;5037713;28;20041;-60
2022/05/07 04:15:21;;;;;;;39.03;26.43;;;;;;;;;;5038562;28;20051;-60
2022/05/07 04:17:47;;;;;;;39.93;27.50;;;;;;;;;;5039436;28;20050;-60
2022/05/07 04:20:13;;;;;;;40.20;28.37;;;;;;;;;;5037255;28;20045;-60
2022/05/07 04:22:39;;;;;;;36.97;26.90;;;;;;;;;;5037987;28;20091;-60
2022/05/07 04:25:06;;;;;;;33.63;27.03;;;;;;;;;;5040438;28;20496;-60
2022/05/07 04:27:33;;;;;;;39.07;28.67;;;;;;;;;;5037719;28;20049;-60
2022/05/07 04:29:59;;;;;;;37.60;28.10;;;;;;;;;;5038578;28;20109;-60
2022/05/07 04:32:25;;;;;;;34.43;28.07;;;;;;;;;;5038432;28;20041;-60
2022/05/07 04:34:51;;;;;;;36.63;27.87;;;;;;;;;;5037181;28;20111;-60
2022/05/07 04:37:17;;;;;;;40.17;27.50;;;;;;;;;;5039356;28;20056;-61
2022/05/07 04:39:43;;;;;;;40.27;28.33;;;;;;;;;;5038458;28;20049;-60
2022/05/07 04:42:10;;;;;;;38.00;29.37;;;;;;;;;;5040376;28;20044;-59
2022/05/07 04:44:36;;;;;;;34.10;27.60;;;;;;;;;;5033062;28;20444;-60
2022/05/07 04:47:02;;;;;;;35.77;27.80;;;;;;;;;;5038820;28;20123;-59
2022/05/07 04:49:28;;;;;;;35.17;28.77;;;;;;;;;;5037811;28;20132;-59
2022/05/07 04:51:54;;;;;;;35.87;27.77;;;;;;;;;;5039166;28;20052;-60
2022/05/07 04:54:21;;;;;;;37.23;29.40;;;;;;;;;;5037781;28;20042;-60
2022/05/07 04:56:47;;;;;;;38.43;29.50;;;;;;;;;;5037680;28;20052;-60
2022/05/07 04:59:14;;;;;;;40.37;28.93;;;;;;;;;;5039319;28;20530;-60
2022/05/07 05:01:40;;;;;;;36.40;28.40;;;;;;;;;;5038824;28;20045;-60
2022/05/07 05:04:06;;;;;;;35.40;29.27;;;;;;;;;;5038605;28;20041;-59
2022/05/07 05:06:32;;;;;;;35.47;28.33;;;;;;;;;;5029778;28;20504;-60
2022/05/07 05:08:58;;;;;;;41.30;29.57;;;;;;;;;;5029337;28;20046;-60
2022/05/07 05:11:25;;;;;;;33.23;28.23;;;;;;;;;;5029347;28;20041;-60
2022/05/07 05:13:51;;;;;;;32.17;26.97;;;;;;;;;;5029630;28;20053;-59
2022/05/07 05:16:17;;;;;;;37.30;28.93;;;;;;;;;;5038002;28;20049;-60
2022/05/07 05:18:43;;;;;;;36.27;28.10;;;;;;;;;;5029521;28;20049;-60
2022/05/07 05:21:09;;;;;;;36.03;27.60;;;;;;;;;;5029513;28;20057;-59
2022/05/07 05:23:35;;;;;;;35.20;26.30;;;;;;;;;;5043970;28;20048;-60
2022/05/07 05:26:01;;;;;;;39.43;27.37;;;;;;;;;;5051027;28;20040;-60
2022/05/07 05:28:27;;;;;;;35.97;29.13;;;;;;;;;;5051235;28;20152;-60
2022/05/07 05:30:53;;;;;;;34.90;27.47;;;;;;;;;;5033219;28;20050;-60
2022/05/07 05:33:19;;;;;;;36.30;28.53;;;;;;;;;;5033159;28;20060;-60
2022/05/07 05:35:46;;;;;;;32.07;26.20;;;;;;;;;;5047950;28;20167;-60
2022/05/07 05:38:12;;;;;;;33.10;26.70;;;;;;;;;;5053158;28;20139;-60
2022/05/07 05:40:38;;;;;;;35.77;25.70;;;;;;;;;;5052658;28;20037;-60
2022/05/07 05:43:04;;;;;;;34.07;25.00;;;;;;;;;;5053053;28;20720;-60
2022/05/07 05:45:30;;;;;;;31.93;25.33;;;;;;;;;;5048672;28;20487;-60
2022/05/07 05:47:56;;;;;;;36.90;26.37;;;;;;;;;;5042068;28;20099;-60
2022/05/07 05:50:22;;;;;;;34.60;24.80;;;;;;;;;;5040351;28;20049;-60
2022/05/07 05:52:48;;;;;;;29.97;25.33;;;;;;;;;;5040221;28;20045;-60
2022/05/07 05:55:14;;;;;;;32.23;26.07;;;;;;;;;;5036065;28;20052;-60
2022/05/07 05:57:40;;;;;;;28.00;24.93;;;;;;;;;;5031428;28;20589;-60
2022/05/07 06:00:07;;;;;;;28.23;23.43;;;;;;;;;;5031839;28;20506;-60
2022/05/07 06:02:33;;;;;;;30.47;25.20;;;;;;;;;;5030886;28;20068;-60
2022/05/07 06:04:59;;;;;;;29.40;23.13;;;;;;;;;;5032596;28;20063;-60
2022/05/07 06:07:25;;;;;;;29.03;24.30;;;;;;;;;;5032761;28;20107;-60
2022/05/07 06:09:52;;;;;;;28.30;25.13;;;;;;;;;;5031895;28;20143;-60
2022/05/07 06:12:18;;;;;;;30.33;23.83;;;;;;;;;;5031980;28;20048;-61
2022/05/07 06:14:44;;;;;;;32.03;24.53;;;;;;;;;;5030050;28;20053;-60
2022/05/07 06:17:10;;;;;;;35.77;22.93;;;;;;;;;;5030967;28;20049;-60
2022/05/07 06:19:36;;;;;;;26.13;22.93;;;;;;;;;;5031364;28;20041;-60
2022/05/07 06:22:02;;;;;;;26.83;23.03;;;;;;;;;;5031358;28;20049;-60
2022/05/07 06:27:31;;;;;;;30.10;23.63;;;;;;;;;;5047881;28;20439;-60
2022/05/07 06:29:58;;;;;;;38.13;25.23;;;;;;;;;;5043057;28;20049;-60
2022/05/07 06:32:24;;;;;;;37.10;22.87;;;;;;;;;;5036032;28;20053;-60
2022/05/07 06:34:50;;;;;;;31.67;22.17;;;;;;;;;;5040665;28;20044;-60
2022/05/07 06:37:16;;;;;;;30.23;22.83;;;;;;;;;;5048004;28;20053;-60
2022/05/07 06:39:42;;;;;;;27.07;23.17;;;;;;;;;;5042522;28;20567;-60
2022/05/07 06:42:08;;;;;;;29.03;20.73;;;;;;;;;;5036918;28;20056;-60
2022/05/07 06:44:34;;;;;;;31.67;21.00;;;;;;;;;;5042027;28;20450;-60
2022/05/07 06:47:01;;;;;;;26.10;20.33;;;;;;;;;;5047692;28;20048;-60
2022/05/07 06:49:27;;;;;;;25.70;19.37;;;;;;;;;;5043483;28;20045;-60
2022/05/07 06:51:53;;;;;;;24.13;19.53;;;;;;;;;;5049702;28;20041;-60
2022/05/07 06:54:21;;;;;;;20.17;16.93;;;;;;;;;;5051173;28;20041;-60
2022/05/07 06:56:47;;;;;;;22.90;19.63;;;;;;;;;;5059054;28;20499;-61
2022/05/07 06:59:13;;;;;;;26.07;20.50;;;;;;;;;;5049366;28;20124;-61
2022/05/07 07:01:39;;;;;;;28.53;21.33;;;;;;;;;;5041931;28;20146;-61
2022/05/07 07:04:05;;;;;;;27.83;20.27;;;;;;;;;;5044447;28;20098;-61
2022/05/07 07:06:31;;;;;;;26.40;20.13;;;;;;;;;;5048077;28;20048;-60
2022/05/07 07:08:57;;;;;;;24.67;18.23;;;;;;;;;;5054670;28;20040;-60
2022/05/07 07:11:25;;;;;;;26.90;19.00;;;;;;;;;;5059200;28;20392;-60
2022/05/07 07:13:51;;;;;;;21.00;18.40;;;;;;;;;;5070025;28;20055;-60
2022/05/07 07:16:18;;;;;;;21.23;16.83;;;;;;;;;;5061324;28;20044;-60
2022/05/07 07:18:44;;;;;;;23.43;17.20;;;;;;;;;;5033298;28;20522;-60
2022/05/07 07:21:12;;;;;;;22.43;17.53;;;;;;;;;;5034427;28;20453;-60
2022/05/07 07:23:38;;;;;;;18.50;16.13;;;;;;;;;;5036527;28;20129;-60
2022/05/07 07:26:04;;;;;;;19.63;14.77;;;;;;;;;;5030036;28;20049;-60
2022/05/07 07:28:31;;;;;;;19.10;12.90;;;;;;;;;;5039646;28;20087;-60
2022/05/07 07:30:58;;;;;;;22.83;12.17;;;;;;;;;;5048349;28;20495;-60
2022/05/07 07:33:24;;;;;;;16.13;11.37;;;;;;;;;;5048345;28;20132;-60
2022/05/07 07:35:50;;;;;;;16.10;11.97;;;;;;;;;;5033682;28;20057;-60
2022/05/07 07:38:16;;;;;;;15.03;10.80;;;;;;;;;;5029158;28;20530;-61
2022/05/07 07:40:44;;;;;;;20.17;12.27;;;;;;;;;;5029470;28;20685;-60
2022/05/07 07:43:10;;;;;;;17.23;11.53;;;;;;;;;;5029562;28;20247;-60
2022/05/07 07:48:21;;;;;;;18.53;11.13;;;;;;;;;;5029505;28;20049;-60
2022/05/07 07:50:50;;;;;;;20.10;11.83;;;;;;;;;;5029151;28;20088;-60
2022/05/07 07:53:16;;;;;;;19.60;10.37;;;;;;;;;;5028548;28;20629;-60
2022/05/07 07:55:42;;;;;;;17.53;12.20;;;;;;;;;;5029129;28;20080;-60
2022/05/07 07:58:12;;;;;;;17.97;12.13;;;;;;;;;;5029526;28;20068;-60
2022/05/07 08:00:38;;;;;;;16.37;11.90;;;;;;;;;;5029315;28;20495;-60
2022/05/07 08:03:05;;;;;;;18.20;12.90;;;;;;;;;;5027860;28;20103;-60
2022/05/07 08:05:32;;;;;;;18.80;12.00;;;;;;;;;;5040569;28;20048;-60
2022/05/07 08:13:38;;;;;;;22.33;13.47;;;;;;;;;;5049299;28;20053;-60
2022/05/07 08:16:05;;;;;;;20.67;13.37;;;;;;;;;;5048684;28;20060;-60
2022/05/07 08:18:31;;;;;;;21.77;14.20;;;;;;;;;;5048699;28;20098;-60
2022/05/07 08:20:57;;;;;;;18.57;13.27;;;;;;;;;;5049106;28;20041;-60
2022/05/07 08:23:25;;;;;;;18.43;14.70;;;;;;;;;;5048752;28;20045;-60
2022/05/07 08:25:51;;;;;;;19.10;14.47;;;;;;;;;;5048752;28;20092;-60
2022/05/07 08:28:18;;;;;;;19.50;14.33;;;;;;;;;;5048616;28;20056;-60
2022/05/07 08:30:44;;;;;;;19.90;14.80;;;;;;;;;;5043623;28;20059;-60
2022/05/07 08:33:10;;;;;;;22.07;14.33;;;;;;;;;;5028847;28;20049;-60
2022/05/07 08:35:36;;;;;;;21.80;14.10;;;;;;;;;;5028337;28;20052;-60
2022/05/07 08:38:02;;;;;;;19.50;15.23;;;;;;;;;;5028634;28;20042;-60
2022/05/07 08:40:30;;;;;;;21.00;15.43;;;;;;;;;;5028221;28;20076;-60
2022/05/07 08:42:56;;;;;;;20.33;14.60;;;;;;;;;;5028331;28;20538;-60
2022/05/07 08:45:22;;;;;;;21.03;15.57;;;;;;;;;;5027240;28;20041;-60
2022/05/07 08:47:52;;;;;;;20.93;14.43;;;;;;;;;;5028578;28;20041;-60
2022/05/07 08:50:18;;;;;;;17.90;14.37;;;;;;;;;;5028457;28;20076;-60
2022/05/07 08:52:45;;;;;;;17.67;14.43;;;;;;;;;;5028353;28;20091;-60
2022/05/07 08:55:15;;;;;;;15.70;13.40;;;;;;;;;;5028240;28;20113;-60
2022/05/07 08:57:42;;;;;;;18.77;15.57;;;;;;;;;;5028745;28;20041;-61
2022/05/07 09:00:12;;;;;;;17.83;14.67;;;;;;;;;;5029279;28;20045;-60
2022/05/07 09:02:42;;;;;;;19.77;14.13;;;;;;;;;;5038696;28;20119;-60
2022/05/07 09:05:11;;;;;;;23.77;14.67;;;;;;;;;;5034907;28;20114;-60
2022/05/07 09:07:39;;;;;;;20.90;14.07;;;;;;;;;;5035340;28;20041;-60
2022/05/07 09:10:14;;;;;;;26.10;16.23;;;;;;;;;;5034589;28;20473;-60
2022/05/07 09:12:40;;;;;;;22.50;14.43;;;;;;;;;;5034976;28;20038;-61
2022/05/07 09:15:08;;;;;;;21.27;14.40;;;;;;;;;;5034917;28;20579;-61
2022/05/07 09:17:34;;;;;;;21.07;14.33;;;;;;;;;;5034635;28;20045;-61
2022/05/07 09:20:16;;;;;;;25.23;14.40;;;;;;;;;;5034481;28;20068;-60
2022/05/07 09:22:55;;;;;;;26.23;13.60;;;;;;;;;;5034653;28;20045;-61
2022/05/07 09:25:26;;;;;;;24.67;14.40;;;;;;;;;;5053095;28;20130;-61
2022/05/07 09:27:54;;;;;;;16.83;12.57;;;;;;;;;;5054821;28;20549;-61
2022/05/07 09:30:26;;;;;;;19.58;12.73;;;;;;;;;;5054412;28;20056;-61
2022/05/07 09:32:52;;;;;;;;;;;;;;;;;;5054814;28;20044;-60
2022/05/07 09:38:05;;;;;;;19.10;12.82;;;;;;;;;;5052889;28;20049;-61
2022/05/07 09:40:31;;;;;;;18.05;12.68;;;;;;;;;;5054735;28;20155;-61
2022/05/07 09:42:58;;;;;;;18.77;13.02;;;;;;;;;;5054117;28;20045;-61
2022/05/07 09:45:27;;;;;;;17.17;12.57;;;;;;;;;;5054278;28;20064;-61
2022/05/07 09:47:58;;;;;;;18.27;13.30;;;;;;;;;;5053418;28;20052;-61
2022/05/07 09:50:43;;;;;;;18.58;12.77;;;;;;;;;;5044454;28;20129;-61
2022/05/07 09:58:39;;;;;;;24.83;14.68;;;;;;;;;;5054435;28;20059;-60
2022/05/07 10:01:11;;;;;;;21.20;13.63;;;;;;;;;;5054565;28;20052;-61
2022/05/07 10:03:50;;;;;;;18.33;12.95;;;;;;;;;;5053230;28;20053;-61
2022/05/07 10:06:19;;;;;;;21.25;15.02;;;;;;;;;;5054489;28;20041;-61
2022/05/07 10:08:45;;;;;;;20.98;14.95;;;;;;;;;;5054661;28;20056;-61
2022/05/07 10:11:13;;;;;;;21.13;13.15;;;;;;;;;;5054316;28;20148;-61
2022/05/07 10:13:39;;;;;;;21.88;15.10;;;;;;;;;;5049805;28;20102;-61
2022/05/07 10:16:05;;;;;;;18.90;15.68;;;;;;;;;;5050750;28;20463;-61
2022/05/07 10:18:41;;;;;;;22.05;15.02;;;;;;;;;;5051131;28;20048;-61
2022/05/07 10:21:11;;;;;;;27.67;14.82;;;;;;;;;;5050958;28;20052;-61
2022/05/07 10:23:38;;;;;;;18.98;14.43;;;;;;;;;;5040314;28;20503;-61
2022/05/07 10:26:05;;;;;;;20.55;14.77;;;;;;;;;;5050497;28;20045;-60
2022/05/07 10:28:42;;;;;;;16.55;13.40;;;;;;;;;;5050906;28;20132;-61
2022/05/07 10:31:25;;;;;;;20.42;13.85;;;;;;;;;;5050439;28;20529;-61
2022/05/07 10:33:52;;;;;;;21.33;14.07;;;;;;;;;;5050527;28;20052;-61
2022/05/07 10:36:19;;;;;;;19.73;13.77;;;;;;;;;;5050331;28;20052;-61
2022/05/07 10:38:46;;;;;;;21.45;15.50;;;;;;;;;;5050933;28;20044;-61
2022/05/07 10:41:15;;;;;;;17.98;13.50;;;;;;;;;;5050586;28;20045;-61
2022/05/07 10:43:42;;;;;;;21.45;16.50;;;;;;;;;;5044283;28;20051;-61
2022/05/07 10:46:09;;;;;;;22.75;14.70;;;;;;;;;;5050097;28;20049;-61
2022/05/07 10:48:46;;;;;;;19.33;16.02;;;;;;;;;;5050443;28;20125;-61
2022/05/07 10:51:19;;;;;;;18.58;14.73;;;;;;;;;;5050535;28;20041;-61
2022/05/07 10:53:45;;;;;;;20.77;16.15;;;;;;;;;;5050382;28;20074;-61
2022/05/07 10:56:12;;;;;;;25.02;17.55;;;;;;;;;;5049932;28;20049;-61
2022/05/07 10:58:44;;;;;;;20.55;16.70;;;;;;;;;;5050303;28;20123;-61
2022/05/07 11:01:10;;;;;;;20.60;16.05;;;;;;;;;;5050254;28;20049;-61
2022/05/07 11:03:36;;;;;;;21.42;16.08;;;;;;;;;;5050202;28;20045;-61
2022/05/07 11:06:02;;;;;;;19.55;17.17;;;;;;;;;;5048481;28;20139;-61
2022/05/07 11:08:30;;;;;;;22.67;17.52;;;;;;;;;;5050486;28;20055;-61
2022/05/07 11:11:07;;;;;;;21.17;16.52;;;;;;;;;;5050069;28;20444;-61
2022/05/07 11:13:37;;;;;;;18.88;17.02;;;;;;;;;;5031101;28;20115;-61
2022/05/07 11:16:04;;;;;;;19.15;15.75;;;;;;;;;;5028909;28;20510;-61
2022/05/07 11:18:33;;;;;;;21.17;16.83;;;;;;;;;;5028945;28;20132;-61
2022/05/07 11:21:06;;;;;;;20.42;16.25;;;;;;;;;;5030048;28;20499;-61
2022/05/07 11:23:36;;;;;;;21.70;18.08;;;;;;;;;;5029758;28;20045;-61
2022/05/07 11:26:12;;;;;;;19.65;17.50;;;;;;;;;;5030009;28;20132;-61
2022/05/07 11:28:39;;;;;;;17.25;15.45;;;;;;;;;;5029602;28;20526;-61
2022/05/07 11:31:05;;;;;;;18.52;16.55;;;;;;;;;;5029742;28;20055;-61
2022/05/07 11:33:31;;;;;;;23.63;16.85;;;;;;;;;;5030003;28;20052;-61
2022/05/07 11:36:15;;;;;;;18.80;16.80;;;;;;;;;;5029157;28;20045;-61
2022/05/07 11:38:42;;;;;;;17.92;16.10;;;;;;;;;;5029121;28;20132;-61
2022/05/07 11:41:12;;;;;;;15.18;13.68;;;;;;;;;;5029690;28;20056;-61
2022/05/07 11:46:49;;;;;;;20.90;16.85;;;;;;;;;;5026137;28;20048;-61
2022/05/07 11:49:15;;;;;;;18.98;17.08;;;;;;;;;;5049153;28;20049;-61
2022/05/07 11:51:41;;;;;;;19.25;17.35;;;;;;;;;;5049244;28;20075;-61
2022/05/07 11:54:10;;;;;;;22.92;17.42;;;;;;;;;;5049098;28;20049;-61
2022/05/07 11:56:45;;;;;;;17.00;15.25;;;;;;;;;;5049023;28;20045;-61
2022/05/07 11:59:11;;;;;;;18.48;16.70;;;;;;;;;;5048228;28;20482;-61
2022/05/07 12:01:37;;;;;;;17.02;15.32;;;;;;;;;;5049126;28;20462;-61
2022/05/07 12:04:10;;;;;;;18.00;14.75;;;;;;;;;;5049062;28;20045;-61
2022/05/07 12:06:36;;;;;;;20.10;15.93;;;;;;;;;;5030047;28;20045;-61
2022/05/07 12:09:13;;;;;;;18.27;16.52;;;;;;;;;;5029166;28;20045;-61
2022/05/07 12:11:39;;;;;;;18.58;16.67;;;;;;;;;;5029083;28;20097;-61
2022/05/07 12:14:05;;;;;;;18.67;16.80;;;;;;;;;;5029086;28;20045;-61
2022/05/07 12:19:16;;;;;;;17.58;15.40;;;;;;;;;;5029020;28;20049;-61
2022/05/07 12:29:56;;;;;;;18.08;15.98;;;;;;;;;;5028757;28;20049;-61
2022/05/07 12:32:24;;;;;;;19.98;17.23;;;;;;;;;;5028436;28;20106;-61
2022/05/07 12:34:50;;;;;;;20.27;17.30;;;;;;;;;;5028456;28;20057;-61
2022/05/07 12:37:16;;;;;;;20.85;17.25;;;;;;;;;;5031851;28;20545;-61
2022/05/07 12:39:43;;;;;;;19.00;17.05;;;;;;;;;;5048544;28;20037;-61
2022/05/07 12:42:10;;;;;;;21.08;17.05;;;;;;;;;;5048750;28;20487;-61
2022/05/07 12:44:36;;;;;;;17.25;15.57;;;;;;;;;;5048138;28;20041;-61
2022/05/07 12:47:03;;;;;;;18.67;16.73;;;;;;;;;;5048159;28;20495;-61
2022/05/07 12:49:29;;;;;;;18.55;16.60;;;;;;;;;;5048478;28;20418;-61
2022/05/07 12:51:55;;;;;;;21.55;17.50;;;;;;;;;;5048183;28;20183;-61
2022/05/07 12:54:21;;;;;;;24.20;16.98;;;;;;;;;;5047860;28;20041;-61
2022/05/07 12:56:48;;;;;;;17.05;15.25;;;;;;;;;;5047919;28;20087;-61
2022/05/07 12:59:14;;;;;;;18.35;15.38;;;;;;;;;;5048344;28;20045;-61
2022/05/07 13:01:40;;;;;;;18.48;16.30;;;;;;;;;;5044464;28;20465;-61
2022/05/07 13:04:06;;;;;;;18.42;16.40;;;;;;;;;;5028122;28;20111;-61
2022/05/07 13:06:32;;;;;;;21.67;16.27;;;;;;;;;;5028335;28;20049;-61
2022/05/07 13:09:00;;;;;;;19.02;13.95;;;;;;;;;;5027991;28;20073;-61
2022/05/07 13:11:26;;;;;;;18.50;15.35;;;;;;;;;;5028363;28;20396;-61
2022/05/07 13:13:52;;;;;;;18.63;15.38;;;;;;;;;;5028339;28;20041;-61
2022/05/07 13:16:18;;;;;;;20.15;18.00;;;;;;;;;;5027978;28;20053;-61
2022/05/07 13:18:45;;;;;;;19.02;16.10;;;;;;;;;;5028377;28;20049;-61
2022/05/07 13:21:11;;;;;;;18.40;15.73;;;;;;;;;;5028178;28;20041;-61
2022/05/07 13:23:38;;;;;;;20.60;17.65;;;;;;;;;;5027783;28;20873;-61
2022/05/07 13:26:04;;;;;;;20.85;18.50;;;;;;;;;;5027854;28;20064;-61
2022/05/07 13:28:30;;;;;;;22.60;17.98;;;;;;;;;;5026803;28;20096;-61
2022/05/07 13:30:58;;;;;;;21.20;19.02;;;;;;;;;;5028214;28;20058;-61
2022/05/07 13:33:24;;;;;;;21.15;18.35;;;;;;;;;;5028191;28;20099;-61
2022/05/07 13:35:51;;;;;;;26.42;20.95;;;;;;;;;;5027611;28;20080;-61
2022/05/07 13:38:17;;;;;;;25.60;22.50;;;;;;;;;;5027921;28;20860;-61
2022/05/07 13:40:44;;;;;;;26.88;22.45;;;;;;;;;;5027968;28;20046;-61
2022/05/07 13:43:10;;;;;;;23.48;20.70;;;;;;;;;;5028222;28;20495;-61
2022/05/07 13:45:37;;;;;;;22.10;19.75;;;;;;;;;;5028047;28;20049;-61
2022/05/07 13:48:04;;;;;;;25.88;21.13;;;;;;;;;;5030655;28;20483;-62
2022/05/07 13:50:30;;;;;;;23.00;20.58;;;;;;;;;;5031826;28;20120;-61
2022/05/07 13:52:56;;;;;;;21.25;18.85;;;;;;;;;;5031437;28;20045;-61
2022/05/07 13:55:23;;;;;;;20.88;17.50;;;;;;;;;;5031562;28;20176;-61
2022/05/07 13:57:49;;;;;;;22.20;17.80;;;;;;;;;;5031612;28;20056;-62
2022/05/07 14:00:16;;;;;;;24.00;21.25;;;;;;;;;;5031512;28;20045;-62
2022/05/07 14:02:43;;;;;;;21.13;18.77;;;;;;;;;;5045752;28;20045;-62
2022/05/07 14:05:09;;;;;;;20.52;18.42;;;;;;;;;;5051032;28;20597;-62
2022/05/07 14:07:37;;;;;;;18.85;16.95;;;;;;;;;;5050275;28;20995;-62
2022/05/07 14:10:03;;;;;;;17.45;15.65;;;;;;;;;;5051282;28;20415;-62
2022/05/07 14:12:29;;;;;;;17.08;14.43;;;;;;;;;;5050207;28;20053;-61
2022/05/07 14:14:55;;;;;;;17.52;15.68;;;;;;;;;;5050620;28;20045;-61
2022/05/07 14:17:22;;;;;;;17.67;15.80;;;;;;;;;;5051017;28;20098;-61
2022/05/07 14:19:51;;;;;;;17.30;14.20;;;;;;;;;;5050988;28;20060;-61
2022/05/07 14:22:17;;;;;;;15.05;13.45;;;;;;;;;;5051215;28;20131;-61
2022/05/07 14:24:43;;;;;;;13.70;12.35;;;;;;;;;;5051123;28;20120;-61
2022/05/07 14:27:09;;;;;;;19.25;14.80;;;;;;;;;;5050801;28;20667;-61
2022/05/07 14:29:35;;;;;;;14.52;12.43;;;;;;;;;;5050868;28;20135;-61
2022/05/07 14:32:04;;;;;;;13.00;11.25;;;;;;;;;;5049822;28;20049;-61
2022/05/07 14:34:31;;;;;;;14.45;10.52;;;;;;;;;;5050863;28;20080;-61
2022/05/07 14:36:57;;;;;;;12.30;9.90;;;;;;;;;;5050209;28;20081;-61
2022/05/07 14:39:23;;;;;;;12.77;9.40;;;;;;;;;;5050300;28;20055;-61
2022/05/07 14:41:49;;;;;;;13.27;10.02;;;;;;;;;;5050717;28;20526;-61
2022/05/07 14:44:15;;;;;;;11.30;9.32;;;;;;;;;;5050963;28;20467;-61
2022/05/07 14:46:42;;;;;;;12.35;9.73;;;;;;;;;;5050185;28;20925;-61
2022/05/07 14:49:10;;;;;;;11.60;8.65;;;;;;;;;;5050204;28;20136;-61
2022/05/07 14:51:37;;;;;;;14.90;9.05;;;;;;;;;;5050321;28;20078;-61
2022/05/07 14:54:03;;;;;;;11.35;8.95;;;;;;;;;;5050254;28;20083;-60
2022/05/07 14:56:30;;;;;;;11.52;9.95;;;;;;;;;;5050193;28;20049;-61